sensor_id;sensor_type;location;lat;lon;timestamp;pressure;altitude;pressure_sealevel;temperature;humidity
16664;BME280;8445;51.270;9.434;2023-06-26T00:01:17;99400.59;;;18.56;61.31
16664;BME280;8445;51.270;9.434;2023-06-26T00:03:43;99403.94;;;18.41;61.78
16664;BME280;8445;51.270;9.434;2023-06-26T00:06:09;99409.63;;;18.30;62.56
16664;BME280;8445;51.270;9.434;2023-06-26T00:08:34;99401.25;;;18.16;62.83
16664;BME280;8445;51.270;9.434;2023-06-26T00:11:00;99393.03;;;18.01;62.38
16664;BME280;8445;51.270;9.434;2023-06-26T00:13:25;99395.16;;;17.98;63.19
16664;BME280;8445;51.270;9.434;2023-06-26T00:15:51;99395.31;;;17.96;62.89
16664;BME280;8445;51.270;9.434;2023-06-26T00:18:16;99398.16;;;17.86;63.22
16664;BME280;8445;51.270;9.434;2023-06-26T00:20:42;99394.44;;;17.79;64.04
16664;BME280;8445;51.270;9.434;2023-06-26T00:23:07;99389.44;;;17.84;63.92
16664;BME280;8445;51.270;9.434;2023-06-26T00:25:33;99383.09;;;17.85;64.49
16664;BME280;8445;51.270;9.434;2023-06-26T00:27:59;99381.41;;;17.84;63.73
16664;BME280;8445;51.270;9.434;2023-06-26T00:30:25;99383.44;;;17.82;63.70
16664;BME280;8445;51.270;9.434;2023-06-26T00:32:51;99384.78;;;17.86;63.25
16664;BME280;8445;51.270;9.434;2023-06-26T00:35:17;99381.44;;;17.92;64.31
16664;BME280;8445;51.270;9.434;2023-06-26T00:37:43;99377.44;;;17.97;63.69
16664;BME280;8445;51.270;9.434;2023-06-26T00:40:12;99384.13;;;17.92;63.57
16664;BME280;8445;51.270;9.434;2023-06-26T00:42:38;99377.75;;;17.85;64.14
16664;BME280;8445;51.270;9.434;2023-06-26T00:45:04;99378.88;;;17.66;64.17
16664;BME280;8445;51.270;9.434;2023-06-26T00:47:29;99378.31;;;17.46;64.81
16664;BME280;8445;51.270;9.434;2023-06-26T00:49:55;99375.09;;;17.34;65.21
16664;BME280;8445;51.270;9.434;2023-06-26T00:52:21;99378.41;;;17.28;65.15
16664;BME280;8445;51.270;9.434;2023-06-26T00:54:50;99374.88;;;17.27;65.32
16664;BME280;8445;51.270;9.434;2023-06-26T00:57:17;99373.06;;;17.28;65.41
16664;BME280;8445;51.270;9.434;2023-06-26T00:59:42;99369.41;;;17.29;65.23
16664;BME280;8445;51.270;9.434;2023-06-26T01:02:08;99377.59;;;17.36;66.39
16664;BME280;8445;51.270;9.434;2023-06-26T01:04:35;99370.25;;;17.38;65.42
16664;BME280;8445;51.270;9.434;2023-06-26T01:07:02;99368.91;;;17.33;65.63
16664;BME280;8445;51.270;9.434;2023-06-26T01:09:28;99372.38;;;17.26;65.87
16664;BME280;8445;51.270;9.434;2023-06-26T01:11:55;99381.88;;;17.20;66.15
16664;BME280;8445;51.270;9.434;2023-06-26T01:14:21;99369.44;;;17.11;66.14
16664;BME280;8445;51.270;9.434;2023-06-26T01:16:46;99370.75;;;16.98;66.50
16664;BME280;8445;51.270;9.434;2023-06-26T01:19:27;99369.59;;;17.01;74.57
16664;BME280;8445;51.270;9.434;2023-06-26T01:22:14;99363.78;;;17.06;70.14
16664;BME280;8445;51.270;9.434;2023-06-26T01:25:03;99361.75;;;16.99;78.98
16664;BME280;8445;51.270;9.434;2023-06-26T01:27:35;99354.03;;;16.96;68.13
16664;BME280;8445;51.270;9.434;2023-06-26T01:30:03;99353.31;;;16.94;67.55
16664;BME280;8445;51.270;9.434;2023-06-26T01:32:34;99353.78;;;16.89;67.31
16664;BME280;8445;51.270;9.434;2023-06-26T01:35:01;99357.09;;;16.83;67.88
16664;BME280;8445;51.270;9.434;2023-06-26T01:37:29;99352.19;;;16.70;67.73
16664;BME280;8445;51.270;9.434;2023-06-26T01:39:54;99354.28;;;16.58;68.18
16664;BME280;8445;51.270;9.434;2023-06-26T01:42:20;99358.69;;;16.50;68.26
16664;BME280;8445;51.270;9.434;2023-06-26T01:44:46;99355.00;;;16.42;68.15
16664;BME280;8445;51.270;9.434;2023-06-26T01:47:16;99343.63;;;16.40;69.27
16664;BME280;8445;51.270;9.434;2023-06-26T01:50:02;99341.28;;;16.37;72.62
16664;BME280;8445;51.270;9.434;2023-06-26T01:52:49;99340.59;;;16.35;73.09
16664;BME280;8445;51.270;9.434;2023-06-26T01:57:47;99339.47;;;16.20;69.13
16664;BME280;8445;51.270;9.434;2023-06-26T02:00:17;99332.16;;;16.22;70.78
16664;BME280;8445;51.270;9.434;2023-06-26T02:02:45;99334.13;;;16.20;69.34
16664;BME280;8445;51.270;9.434;2023-06-26T02:05:13;99346.78;;;16.18;69.11
16664;BME280;8445;51.270;9.434;2023-06-26T02:07:39;99343.13;;;16.19;70.12
16664;BME280;8445;51.270;9.434;2023-06-26T02:10:06;99338.59;;;16.19;69.40
16664;BME280;8445;51.270;9.434;2023-06-26T02:12:32;99332.75;;;16.15;69.98
16664;BME280;8445;51.270;9.434;2023-06-26T02:14:57;99330.47;;;16.21;70.65
16664;BME280;8445;51.270;9.434;2023-06-26T02:17:24;99335.13;;;16.19;69.73
16664;BME280;8445;51.270;9.434;2023-06-26T02:19:49;99333.59;;;16.16;70.05
16664;BME280;8445;51.270;9.434;2023-06-26T02:22:15;99327.41;;;16.15;70.09
16664;BME280;8445;51.270;9.434;2023-06-26T02:24:44;99326.59;;;16.15;69.82
16664;BME280;8445;51.270;9.434;2023-06-26T02:27:10;99330.09;;;16.15;70.06
16664;BME280;8445;51.270;9.434;2023-06-26T02:29:36;99325.13;;;16.21;70.13
16664;BME280;8445;51.270;9.434;2023-06-26T02:32:02;99329.84;;;16.27;71.40
16664;BME280;8445;51.270;9.434;2023-06-26T02:34:28;99322.22;;;16.32;70.04
16664;BME280;8445;51.270;9.434;2023-06-26T02:36:54;99320.22;;;16.34;70.16
16664;BME280;8445;51.270;9.434;2023-06-26T02:39:21;99321.91;;;16.35;69.94
16664;BME280;8445;51.270;9.434;2023-06-26T02:41:46;99317.69;;;16.33;70.90
16664;BME280;8445;51.270;9.434;2023-06-26T02:44:13;99319.06;;;16.37;70.47
16664;BME280;8445;51.270;9.434;2023-06-26T02:46:40;99317.94;;;16.39;75.04
16664;BME280;8445;51.270;9.434;2023-06-26T02:49:06;99322.66;;;16.45;71.53
16664;BME280;8445;51.270;9.434;2023-06-26T02:51:33;99325.66;;;16.51;70.44
16664;BME280;8445;51.270;9.434;2023-06-26T02:54:02;99322.84;;;16.52;72.90
16664;BME280;8445;51.270;9.434;2023-06-26T02:56:27;99315.53;;;16.54;71.08
16664;BME280;8445;51.270;9.434;2023-06-26T02:58:58;99325.34;;;16.54;71.11
16664;BME280;8445;51.270;9.434;2023-06-26T03:01:24;99311.69;;;16.57;71.21
16664;BME280;8445;51.270;9.434;2023-06-26T03:03:51;99314.34;;;16.57;71.28
16664;BME280;8445;51.270;9.434;2023-06-26T03:06:18;99312.38;;;16.59;71.51
16664;BME280;8445;51.270;9.434;2023-06-26T03:08:44;99312.38;;;16.59;71.30
16664;BME280;8445;51.270;9.434;2023-06-26T03:11:11;99311.38;;;16.60;77.97
16664;BME280;8445;51.270;9.434;2023-06-26T03:13:37;99305.03;;;16.61;73.82
16664;BME280;8445;51.270;9.434;2023-06-26T03:16:04;99306.09;;;16.68;75.01
16664;BME280;8445;51.270;9.434;2023-06-26T03:18:30;99310.47;;;16.78;71.87
16664;BME280;8445;51.270;9.434;2023-06-26T03:20:56;99309.81;;;16.75;73.87
16664;BME280;8445;51.270;9.434;2023-06-26T03:23:22;99308.81;;;16.77;72.21
16664;BME280;8445;51.270;9.434;2023-06-26T03:25:52;99309.50;;;16.79;72.86
16664;BME280;8445;51.270;9.434;2023-06-26T03:28:29;99310.16;;;16.81;72.10
16664;BME280;8445;51.270;9.434;2023-06-26T03:30:56;99312.34;;;16.85;73.85
16664;BME280;8445;51.270;9.434;2023-06-26T03:33:22;99316.56;;;16.88;73.04
16664;BME280;8445;51.270;9.434;2023-06-26T03:35:47;99306.91;;;16.95;73.45
16664;BME280;8445;51.270;9.434;2023-06-26T03:38:14;99304.78;;;16.99;71.94
16664;BME280;8445;51.270;9.434;2023-06-26T03:40:41;99312.00;;;17.07;71.09
16664;BME280;8445;51.270;9.434;2023-06-26T03:43:06;99305.31;;;17.11;70.68
16664;BME280;8445;51.270;9.434;2023-06-26T03:45:44;99312.53;;;17.18;70.58
16664;BME280;8445;51.270;9.434;2023-06-26T03:48:10;99306.69;;;17.23;72.21
16664;BME280;8445;51.270;9.434;2023-06-26T03:50:35;99307.91;;;17.29;72.95
16664;BME280;8445;51.270;9.434;2023-06-26T03:53:02;99298.56;;;17.33;71.52
16664;BME280;8445;51.270;9.434;2023-06-26T03:55:28;99291.41;;;17.42;73.51
16664;BME280;8445;51.270;9.434;2023-06-26T03:57:56;99298.09;;;17.46;74.71
16664;BME280;8445;51.270;9.434;2023-06-26T04:00:21;99302.13;;;17.58;71.22
16664;BME280;8445;51.270;9.434;2023-06-26T04:02:46;99307.66;;;17.65;71.63
16664;BME280;8445;51.270;9.434;2023-06-26T04:05:12;99299.97;;;17.70;70.66
16664;BME280;8445;51.270;9.434;2023-06-26T04:07:38;99300.31;;;17.75;71.21
16664;BME280;8445;51.270;9.434;2023-06-26T04:10:06;99298.47;;;17.84;72.41
16664;BME280;8445;51.270;9.434;2023-06-26T04:12:32;99293.63;;;17.96;70.18
16664;BME280;8445;51.270;9.434;2023-06-26T04:14:58;99304.69;;;18.10;70.27
16664;BME280;8445;51.270;9.434;2023-06-26T04:17:24;99304.38;;;18.21;70.08
16664;BME280;8445;51.270;9.434;2023-06-26T04:19:49;99305.53;;;18.27;70.54
16664;BME280;8445;51.270;9.434;2023-06-26T04:22:15;99308.03;;;18.36;70.90
16664;BME280;8445;51.270;9.434;2023-06-26T04:24:40;99306.50;;;18.50;69.94
16664;BME280;8445;51.270;9.434;2023-06-26T04:27:06;99300.09;;;18.76;69.22
16664;BME280;8445;51.270;9.434;2023-06-26T04:29:32;99298.09;;;18.78;69.05
16664;BME280;8445;51.270;9.434;2023-06-26T04:31:57;99303.09;;;18.81;69.35
16664;BME280;8445;51.270;9.434;2023-06-26T04:34:27;99298.22;;;18.85;69.70
16664;BME280;8445;51.270;9.434;2023-06-26T04:36:53;99302.38;;;18.88;70.02
16664;BME280;8445;51.270;9.434;2023-06-26T04:39:19;99297.69;;;18.98;68.95
16664;BME280;8445;51.270;9.434;2023-06-26T04:41:45;99297.84;;;19.05;69.14
16664;BME280;8445;51.270;9.434;2023-06-26T04:44:11;99297.63;;;19.15;68.88
16664;BME280;8445;51.270;9.434;2023-06-26T04:46:37;99296.59;;;19.24;68.54
16664;BME280;8445;51.270;9.434;2023-06-26T04:49:02;99296.06;;;19.29;68.99
16664;BME280;8445;51.270;9.434;2023-06-26T04:51:28;99299.00;;;19.42;67.78
16664;BME280;8445;51.270;9.434;2023-06-26T04:53:54;99295.44;;;19.50;68.16
16664;BME280;8445;51.270;9.434;2023-06-26T04:56:19;99291.03;;;19.57;68.55
16664;BME280;8445;51.270;9.434;2023-06-26T04:58:45;99288.78;;;19.69;67.47
16664;BME280;8445;51.270;9.434;2023-06-26T05:01:10;99290.22;;;19.80;67.19
16664;BME280;8445;51.270;9.434;2023-06-26T05:03:38;99294.53;;;19.89;67.26
16664;BME280;8445;51.270;9.434;2023-06-26T05:06:05;99290.78;;;19.98;66.86
16664;BME280;8445;51.270;9.434;2023-06-26T05:08:30;99288.00;;;20.07;66.95
16664;BME280;8445;51.270;9.434;2023-06-26T05:10:56;99292.94;;;20.18;66.76
16664;BME280;8445;51.270;9.434;2023-06-26T05:13:23;99283.72;;;20.36;66.39
16664;BME280;8445;51.270;9.434;2023-06-26T05:15:49;99284.50;;;20.59;66.46
16664;BME280;8445;51.270;9.434;2023-06-26T05:18:15;99285.69;;;20.72;66.88
16664;BME280;8445;51.270;9.434;2023-06-26T05:20:41;99287.69;;;20.78;66.90
16664;BME280;8445;51.270;9.434;2023-06-26T05:23:07;99281.19;;;20.87;66.66
16664;BME280;8445;51.270;9.434;2023-06-26T05:25:32;99285.44;;;20.97;66.44
16664;BME280;8445;51.270;9.434;2023-06-26T05:28:00;99286.81;;;21.08;66.09
16664;BME280;8445;51.270;9.434;2023-06-26T05:30:26;99268.75;;;21.16;65.42
16664;BME280;8445;51.270;9.434;2023-06-26T05:32:53;99273.75;;;21.20;65.61
16664;BME280;8445;51.270;9.434;2023-06-26T05:35:23;99268.88;;;21.30;65.54
16664;BME280;8445;51.270;9.434;2023-06-26T05:37:49;99274.69;;;21.48;64.75
16664;BME280;8445;51.270;9.434;2023-06-26T05:40:17;99283.84;;;21.69;64.68
16664;BME280;8445;51.270;9.434;2023-06-26T05:42:43;99272.00;;;21.92;64.04
16664;BME280;8445;51.270;9.434;2023-06-26T05:45:09;99276.28;;;22.08;64.25
16664;BME280;8445;51.270;9.434;2023-06-26T05:47:35;99273.81;;;22.35;63.50
16664;BME280;8445;51.270;9.434;2023-06-26T05:50:01;99269.41;;;22.27;63.34
16664;BME280;8445;51.270;9.434;2023-06-26T05:52:27;99271.09;;;22.28;63.82
16664;BME280;8445;51.270;9.434;2023-06-26T05:54:52;99272.47;;;22.46;63.17
16664;BME280;8445;51.270;9.434;2023-06-26T05:57:18;99273.72;;;22.50;62.55
16664;BME280;8445;51.270;9.434;2023-06-26T05:59:44;99271.53;;;22.60;62.79
16664;BME280;8445;51.270;9.434;2023-06-26T06:02:11;99266.84;;;22.76;62.28
16664;BME280;8445;51.270;9.434;2023-06-26T06:04:37;99274.00;;;22.97;62.40
16664;BME280;8445;51.270;9.434;2023-06-26T06:07:03;99265.34;;;23.15;62.16
16664;BME280;8445;51.270;9.434;2023-06-26T06:09:28;99267.72;;;23.25;61.90
16664;BME280;8445;51.270;9.434;2023-06-26T06:11:54;99264.81;;;23.27;61.86
16664;BME280;8445;51.270;9.434;2023-06-26T06:14:20;99259.81;;;23.23;61.13
16664;BME280;8445;51.270;9.434;2023-06-26T06:16:46;99260.03;;;23.29;61.55
16664;BME280;8445;51.270;9.434;2023-06-26T06:19:11;99259.44;;;23.40;61.31
16664;BME280;8445;51.270;9.434;2023-06-26T06:21:38;99252.63;;;23.51;60.51
16664;BME280;8445;51.270;9.434;2023-06-26T06:24:04;99258.66;;;23.73;59.84
16664;BME280;8445;51.270;9.434;2023-06-26T06:26:30;99251.00;;;23.97;60.55
16664;BME280;8445;51.270;9.434;2023-06-26T06:28:55;99257.47;;;24.09;59.74
16664;BME280;8445;51.270;9.434;2023-06-26T06:31:21;99264.31;;;23.98;59.56
16664;BME280;8445;51.270;9.434;2023-06-26T06:33:46;99267.25;;;24.10;60.00
16664;BME280;8445;51.270;9.434;2023-06-26T06:36:12;99261.84;;;24.10;58.03
16664;BME280;8445;51.270;9.434;2023-06-26T06:38:37;99261.19;;;23.95;59.08
16664;BME280;8445;51.270;9.434;2023-06-26T06:41:03;99252.09;;;24.09;59.21
16664;BME280;8445;51.270;9.434;2023-06-26T06:43:28;99245.63;;;24.04;59.60
16664;BME280;8445;51.270;9.434;2023-06-26T06:45:54;99251.03;;;24.17;59.59
16664;BME280;8445;51.270;9.434;2023-06-26T06:48:19;99254.97;;;24.21;59.36
16664;BME280;8445;51.270;9.434;2023-06-26T06:50:45;99256.00;;;24.27;59.31
16664;BME280;8445;51.270;9.434;2023-06-26T06:53:10;99253.91;;;24.29;58.98
16664;BME280;8445;51.270;9.434;2023-06-26T06:55:36;99246.03;;;24.21;58.53
16664;BME280;8445;51.270;9.434;2023-06-26T06:58:01;99230.41;;;24.43;57.65
16664;BME280;8445;51.270;9.434;2023-06-26T07:00:27;99243.06;;;24.49;56.81
16664;BME280;8445;51.270;9.434;2023-06-26T07:02:52;99242.25;;;24.49;56.41
16664;BME280;8445;51.270;9.434;2023-06-26T07:05:18;99239.75;;;24.54;57.59
16664;BME280;8445;51.270;9.434;2023-06-26T07:07:43;99244.53;;;24.52;57.62
16664;BME280;8445;51.270;9.434;2023-06-26T07:10:11;99247.22;;;24.65;56.65
16664;BME280;8445;51.270;9.434;2023-06-26T07:12:37;99245.97;;;24.61;56.72
16664;BME280;8445;51.270;9.434;2023-06-26T07:15:04;99238.66;;;24.68;56.72
16664;BME280;8445;51.270;9.434;2023-06-26T07:17:33;99245.94;;;24.75;56.35
16664;BME280;8445;51.270;9.434;2023-06-26T07:20:00;99236.78;;;24.76;55.85
16664;BME280;8445;51.270;9.434;2023-06-26T07:22:26;99246.75;;;24.82;56.02
16664;BME280;8445;51.270;9.434;2023-06-26T07:24:52;99243.38;;;24.93;55.71
16664;BME280;8445;51.270;9.434;2023-06-26T07:27:18;99241.09;;;24.90;55.09
16664;BME280;8445;51.270;9.434;2023-06-26T07:29:44;99239.16;;;25.04;55.76
16664;BME280;8445;51.270;9.434;2023-06-26T07:32:10;99239.09;;;25.17;55.73
16664;BME280;8445;51.270;9.434;2023-06-26T07:34:36;99238.47;;;25.22;55.22
16664;BME280;8445;51.270;9.434;2023-06-26T07:37:01;99239.09;;;25.24;55.13
16664;BME280;8445;51.270;9.434;2023-06-26T07:39:27;99234.63;;;25.37;54.52
16664;BME280;8445;51.270;9.434;2023-06-26T07:41:52;99237.31;;;25.43;54.97
16664;BME280;8445;51.270;9.434;2023-06-26T07:44:18;99234.19;;;25.47;54.63
16664;BME280;8445;51.270;9.434;2023-06-26T07:46:43;99234.75;;;25.55;54.64
16664;BME280;8445;51.270;9.434;2023-06-26T07:49:10;99240.78;;;25.57;55.24
16664;BME280;8445;51.270;9.434;2023-06-26T07:51:36;99239.25;;;25.68;53.95
16664;BME280;8445;51.270;9.434;2023-06-26T07:54:02;99238.88;;;25.65;54.63
16664;BME280;8445;51.270;9.434;2023-06-26T07:56:27;99232.31;;;25.79;53.71
16664;BME280;8445;51.270;9.434;2023-06-26T07:58:53;99231.25;;;25.80;52.11
16664;BME280;8445;51.270;9.434;2023-06-26T08:01:18;99234.00;;;25.99;53.71
16664;BME280;8445;51.270;9.434;2023-06-26T08:03:44;99239.31;;;26.12;54.03
16664;BME280;8445;51.270;9.434;2023-06-26T08:06:09;99234.34;;;26.34;54.27
16664;BME280;8445;51.270;9.434;2023-06-26T08:08:35;99233.22;;;26.42;53.24
16664;BME280;8445;51.270;9.434;2023-06-26T08:11:01;99239.53;;;26.55;52.99
16664;BME280;8445;51.270;9.434;2023-06-26T08:13:26;99227.44;;;26.76;53.58
16664;BME280;8445;51.270;9.434;2023-06-26T08:15:52;99239.19;;;26.70;53.09
16664;BME280;8445;51.270;9.434;2023-06-26T08:18:18;99240.94;;;26.83;52.64
16664;BME280;8445;51.270;9.434;2023-06-26T08:20:43;99239.50;;;26.99;53.27
16664;BME280;8445;51.270;9.434;2023-06-26T08:23:09;99236.31;;;27.02;52.95
16664;BME280;8445;51.270;9.434;2023-06-26T08:25:34;99229.16;;;27.07;53.18
16664;BME280;8445;51.270;9.434;2023-06-26T08:28:00;99223.19;;;27.17;52.73
16664;BME280;8445;51.270;9.434;2023-06-26T08:30:26;99227.50;;;27.37;53.04
16664;BME280;8445;51.270;9.434;2023-06-26T08:32:55;99223.53;;;27.51;52.57
16664;BME280;8445;51.270;9.434;2023-06-26T08:35:20;99217.91;;;27.65;52.24
16664;BME280;8445;51.270;9.434;2023-06-26T08:37:46;99230.22;;;27.79;52.01
16664;BME280;8445;51.270;9.434;2023-06-26T08:40:12;99216.41;;;27.81;50.19
16664;BME280;8445;51.270;9.434;2023-06-26T08:42:37;99216.19;;;27.94;52.05
16664;BME280;8445;51.270;9.434;2023-06-26T08:45:03;99215.09;;;28.07;51.20
16664;BME280;8445;51.270;9.434;2023-06-26T08:47:34;99224.59;;;28.17;51.19
16664;BME280;8445;51.270;9.434;2023-06-26T08:50:12;99221.72;;;28.11;47.64
16664;BME280;8445;51.270;9.434;2023-06-26T08:55:27;99212.88;;;28.40;49.97
16664;BME280;8445;51.270;9.434;2023-06-26T08:57:54;99216.59;;;28.75;50.60
16664;BME280;8445;51.270;9.434;2023-06-26T09:00:20;99210.66;;;28.90;50.24
16664;BME280;8445;51.270;9.434;2023-06-26T09:02:46;99209.91;;;29.06;50.35
16664;BME280;8445;51.270;9.434;2023-06-26T09:05:11;99199.72;;;29.42;49.48
16664;BME280;8445;51.270;9.434;2023-06-26T09:07:37;99206.44;;;30.03;49.18
16664;BME280;8445;51.270;9.434;2023-06-26T09:10:03;99209.56;;;30.51;46.38
16664;BME280;8445;51.270;9.434;2023-06-26T09:12:29;99209.44;;;31.35;45.96
16664;BME280;8445;51.270;9.434;2023-06-26T09:14:56;99212.34;;;31.50;48.10
16664;BME280;8445;51.270;9.434;2023-06-26T09:17:25;99216.50;;;32.29;42.36
16664;BME280;8445;51.270;9.434;2023-06-26T09:19:54;99219.22;;;32.82;41.86
16664;BME280;8445;51.270;9.434;2023-06-26T09:22:19;99219.66;;;32.53;46.68
16664;BME280;8445;51.270;9.434;2023-06-26T09:24:45;99214.22;;;32.63;45.48
16664;BME280;8445;51.270;9.434;2023-06-26T09:27:11;99213.81;;;32.92;46.23
16664;BME280;8445;51.270;9.434;2023-06-26T09:29:37;99215.50;;;33.09;45.09
16664;BME280;8445;51.270;9.434;2023-06-26T09:32:03;99224.25;;;32.95;43.15
16664;BME280;8445;51.270;9.434;2023-06-26T09:34:32;99216.03;;;32.95;42.01
16664;BME280;8445;51.270;9.434;2023-06-26T09:36:59;99220.31;;;32.81;45.87
16664;BME280;8445;51.270;9.434;2023-06-26T09:39:30;99221.41;;;32.80;44.68
16664;BME280;8445;51.270;9.434;2023-06-26T09:41:56;99211.22;;;32.65;45.69
16664;BME280;8445;51.270;9.434;2023-06-26T09:44:23;99222.44;;;32.63;45.51
16664;BME280;8445;51.270;9.434;2023-06-26T09:46:48;99222.97;;;32.60;45.12
16664;BME280;8445;51.270;9.434;2023-06-26T09:49:14;99222.41;;;32.15;45.25
16664;BME280;8445;51.270;9.434;2023-06-26T09:51:41;99221.38;;;31.84;45.44
16664;BME280;8445;51.270;9.434;2023-06-26T09:54:08;99217.63;;;31.95;44.95
16664;BME280;8445;51.270;9.434;2023-06-26T09:56:34;99226.69;;;32.38;44.48
16664;BME280;8445;51.270;9.434;2023-06-26T09:59:01;99227.31;;;32.56;43.60
16664;BME280;8445;51.270;9.434;2023-06-26T10:01:28;99226.31;;;32.73;43.40
16664;BME280;8445;51.270;9.434;2023-06-26T10:03:54;99232.03;;;32.61;43.02
16664;BME280;8445;51.270;9.434;2023-06-26T10:06:35;99236.38;;;33.31;38.60
16664;BME280;8445;51.270;9.434;2023-06-26T10:09:02;99239.59;;;33.07;38.65
16664;BME280;8445;51.270;9.434;2023-06-26T10:11:41;99231.63;;;32.42;38.12
16664;BME280;8445;51.270;9.434;2023-06-26T10:14:10;99237.91;;;32.85;40.09
16664;BME280;8445;51.270;9.434;2023-06-26T10:16:37;99224.25;;;32.42;39.99
16664;BME280;8445;51.270;9.434;2023-06-26T10:19:06;99228.28;;;32.29;41.01
16664;BME280;8445;51.270;9.434;2023-06-26T10:21:34;99240.19;;;31.47;40.64
16664;BME280;8445;51.270;9.434;2023-06-26T10:24:00;99241.53;;;30.56;41.89
16664;BME280;8445;51.270;9.434;2023-06-26T10:26:28;99247.03;;;29.70;43.56
16664;BME280;8445;51.270;9.434;2023-06-26T10:28:56;99260.56;;;29.07;44.77
16664;BME280;8445;51.270;9.434;2023-06-26T10:31:26;99291.91;;;28.21;45.97
16664;BME280;8445;51.270;9.434;2023-06-26T10:33:54;99320.97;;;27.11;50.89
16664;BME280;8445;51.270;9.434;2023-06-26T10:36:27;99352.03;;;21.76;100.00
16664;BME280;8445;51.270;9.434;2023-06-26T10:38:55;99328.59;;;29.72;100.00
16664;BME280;8445;51.270;9.434;2023-06-26T10:41:24;99332.78;;;23.50;93.52
16664;BME280;8445;51.270;9.434;2023-06-26T10:44:06;99312.88;;;23.16;90.63
16664;BME280;8445;51.270;9.434;2023-06-26T10:46:47;99302.00;;;22.96;76.79
16664;BME280;8445;51.270;9.434;2023-06-26T10:49:13;99301.38;;;23.01;79.31
16664;BME280;8445;51.270;9.434;2023-06-26T10:51:46;99305.28;;;22.56;85.74
16664;BME280;8445;51.270;9.434;2023-06-26T10:54:15;99307.56;;;22.88;81.30
16664;BME280;8445;51.270;9.434;2023-06-26T10:56:42;99313.16;;;23.28;77.52
16664;BME280;8445;51.270;9.434;2023-06-26T10:59:18;99330.84;;;24.06;84.63
16664;BME280;8445;51.270;9.434;2023-06-26T11:01:46;99338.53;;;24.50;72.39
16664;BME280;8445;51.270;9.434;2023-06-26T11:04:13;99339.91;;;25.13;73.92
16664;BME280;8445;51.270;9.434;2023-06-26T11:06:45;99339.63;;;25.80;71.41
16664;BME280;8445;51.270;9.434;2023-06-26T11:09:14;99334.63;;;26.16;68.07
16664;BME280;8445;51.270;9.434;2023-06-26T11:14:22;99342.00;;;26.53;63.17
16664;BME280;8445;51.270;9.434;2023-06-26T11:16:47;99346.19;;;26.99;60.38
16664;BME280;8445;51.270;9.434;2023-06-26T11:19:16;99335.50;;;27.04;59.86
16664;BME280;8445;51.270;9.434;2023-06-26T11:21:42;99345.75;;;27.02;59.92
16664;BME280;8445;51.270;9.434;2023-06-26T11:24:08;99343.69;;;27.16;59.75
16664;BME280;8445;51.270;9.434;2023-06-26T11:26:40;99343.06;;;27.51;61.58
16664;BME280;8445;51.270;9.434;2023-06-26T11:29:07;99349.25;;;28.32;59.92
16664;BME280;8445;51.270;9.434;2023-06-26T11:31:34;99354.22;;;28.35;58.68
16664;BME280;8445;51.270;9.434;2023-06-26T11:34:08;99353.19;;;28.60;57.86
16664;BME280;8445;51.270;9.434;2023-06-26T11:36:36;99359.66;;;28.35;55.42
16664;BME280;8445;51.270;9.434;2023-06-26T11:39:05;99364.94;;;28.18;57.60
16664;BME280;8445;51.270;9.434;2023-06-26T11:41:38;99355.06;;;28.47;56.47
16664;BME280;8445;51.270;9.434;2023-06-26T11:44:08;99359.59;;;28.89;55.87
16664;BME280;8445;51.270;9.434;2023-06-26T11:46:35;99365.22;;;28.40;55.06
16664;BME280;8445;51.270;9.434;2023-06-26T11:49:07;99368.09;;;28.81;53.54
16664;BME280;8445;51.270;9.434;2023-06-26T11:51:34;99366.44;;;28.92;53.59
16664;BME280;8445;51.270;9.434;2023-06-26T11:54:02;99363.59;;;28.63;53.87
16664;BME280;8445;51.270;9.434;2023-06-26T11:56:30;99364.31;;;28.70;53.23
16664;BME280;8445;51.270;9.434;2023-06-26T11:59:08;99369.84;;;28.63;52.26
16664;BME280;8445;51.270;9.434;2023-06-26T12:01:42;99368.22;;;28.08;50.63
16664;BME280;8445;51.270;9.434;2023-06-26T12:04:11;99373.81;;;28.79;51.56
16664;BME280;8445;51.270;9.434;2023-06-26T12:06:42;99384.13;;;28.35;50.94
16664;BME280;8445;51.270;9.434;2023-06-26T12:09:09;99380.84;;;28.57;51.45
16664;BME280;8445;51.270;9.434;2023-06-26T12:11:42;99384.16;;;28.59;49.40
16664;BME280;8445;51.270;9.434;2023-06-26T12:14:08;99376.47;;;28.55;49.48
16664;BME280;8445;51.270;9.434;2023-06-26T12:16:35;99375.47;;;28.80;49.92
16664;BME280;8445;51.270;9.434;2023-06-26T12:19:05;99379.44;;;28.66;48.87
16664;BME280;8445;51.270;9.434;2023-06-26T12:24:00;99371.53;;;28.10;50.73
16664;BME280;8445;51.270;9.434;2023-06-26T12:26:27;99377.94;;;28.16;50.04
16664;BME280;8445;51.270;9.434;2023-06-26T12:29:09;99383.66;;;28.38;48.21
16664;BME280;8445;51.270;9.434;2023-06-26T12:31:40;99375.19;;;28.94;47.83
16664;BME280;8445;51.270;9.434;2023-06-26T12:34:13;99381.47;;;29.06;49.41
16664;BME280;8445;51.270;9.434;2023-06-26T12:36:43;99383.81;;;28.67;47.10
16664;BME280;8445;51.270;9.434;2023-06-26T12:39:10;99384.56;;;28.86;46.33
16664;BME280;8445;51.270;9.434;2023-06-26T12:42:04;99363.94;;;28.43;46.26
16664;BME280;8445;51.270;9.434;2023-06-26T12:44:30;99378.47;;;28.48;47.31
16664;BME280;8445;51.270;9.434;2023-06-26T12:47:00;99381.56;;;28.64;47.36
16664;BME280;8445;51.270;9.434;2023-06-26T12:49:37;99379.28;;;29.20;45.45
16664;BME280;8445;51.270;9.434;2023-06-26T12:52:05;99395.84;;;29.54;45.50
16664;BME280;8445;51.270;9.434;2023-06-26T12:54:37;99398.31;;;30.14;45.84
16664;BME280;8445;51.270;9.434;2023-06-26T12:57:04;99406.34;;;29.92;43.94
16664;BME280;8445;51.270;9.434;2023-06-26T12:59:33;99393.63;;;30.26;44.39
16664;BME280;8445;51.270;9.434;2023-06-26T13:02:09;99389.50;;;29.95;43.35
16664;BME280;8445;51.270;9.434;2023-06-26T13:04:36;99393.00;;;29.78;42.85
16664;BME280;8445;51.270;9.434;2023-06-26T13:07:16;99386.44;;;30.20;43.63
16664;BME280;8445;51.270;9.434;2023-06-26T13:09:42;99384.84;;;29.49;41.55
16664;BME280;8445;51.270;9.434;2023-06-26T13:21:21;99384.88;;;29.13;44.24
16664;BME280;8445;51.270;9.434;2023-06-26T13:23:49;99374.94;;;29.72;42.96
16664;BME280;8445;51.270;9.434;2023-06-26T13:26:18;99384.41;;;29.40;41.90
16664;BME280;8445;51.270;9.434;2023-06-26T13:28:44;99371.44;;;29.48;43.16
16664;BME280;8445;51.270;9.434;2023-06-26T13:31:09;99375.75;;;29.72;42.53